Rayford, Texas
Current Conditions -  °F | °C
As of 1:53 PM on Tuesday 21 Oct 2014 (Local Time) from KIAH Reporting Station
Clear Clear  
Wind Chill: 80°   Ceiling: Unl
Heat Index: 80°   Visibility: 10mi
Dew Point: 54°   Wind: 6mph
Humidity: 40%   Direction: 60°ENE
Pressure: 30.02"   Gusts: NA
Location:  30.0613°N, 95.3841°W
Report Text: KIAH 211853Z 06005KT 10SM CLR 27/12 A3002 RMK AO2 SLP165 T02670122
Loading
Personal Weather Stations






























Interactive Weather Map
Tropical Storm Tracking
New forecast layout! Learn more

10-Day Weather Forecast

Advertisements
Track Severe Weather on mobile